sensor_id;sensor_type;location;lat;lon;timestamp;temperature;humidity
36206;DHT22;22242;48.796;9.930;2022-10-16T13:23:19;22.70;99.90
36206;DHT22;22242;48.796;9.930;2022-10-16T13:26:01;22.60;99.90
36206;DHT22;22242;48.796;9.930;2022-10-16T13:28:34;22.70;99.90
36206;DHT22;22242;48.796;9.930;2022-10-16T13:31:02;22.50;99.90
36206;DHT22;22242;48.796;9.930;2022-10-16T13:33:32;22.40;99.90
36206;DHT22;22242;48.796;9.930;2022-10-16T13:36:00;22.30;99.90
36206;DHT22;22242;48.796;9.930;2022-10-16T13:38:30;22.10;99.90
36206;DHT22;22242;48.796;9.930;2022-10-16T13:40:59;22.00;99.90
36206;DHT22;22242;48.796;9.930;2022-10-16T13:43:29;22.00;99.90
36206;DHT22;22242;48.796;9.930;2022-10-16T13:46:00;22.10;99.90
36206;DHT22;22242;48.796;9.930;2022-10-16T13:48:28;22.10;99.90
36206;DHT22;22242;48.796;9.930;2022-10-16T13:51:06;21.90;99.90
36206;DHT22;22242;48.796;9.930;2022-10-16T13:53:35;21.90;99.90
36206;DHT22;22242;48.796;9.930;2022-10-16T13:56:05;22.00;99.90
36206;DHT22;22242;48.796;9.930;2022-10-16T13:58:32;21.90;99.90
36206;DHT22;22242;48.796;9.930;2022-10-16T14:01:00;22.00;99.90
36206;DHT22;22242;48.796;9.930;2022-10-16T14:03:29;22.10;99.90
36206;DHT22;22242;48.796;9.930;2022-10-16T14:05:59;22.10;99.90
36206;DHT22;22242;48.796;9.930;2022-10-16T14:08:27;22.20;99.90
36206;DHT22;22242;48.796;9.930;2022-10-16T14:10:58;22.10;99.90
36206;DHT22;22242;48.796;9.930;2022-10-16T14:13:31;22.10;99.90
36206;DHT22;22242;48.796;9.930;2022-10-16T14:16:04;21.90;99.90
36206;DHT22;22242;48.796;9.930;2022-10-16T14:18:32;21.70;99.90
36206;DHT22;22242;48.796;9.930;2022-10-16T14:21:03;21.80;99.90
36206;DHT22;22242;48.796;9.930;2022-10-16T14:23:40;21.70;99.90
36206;DHT22;22242;48.796;9.930;2022-10-16T14:26:19;21.60;99.90
36206;DHT22;22242;48.796;9.930;2022-10-16T14:28:48;21.40;99.90
36206;DHT22;22242;48.796;9.930;2022-10-16T14:31:26;21.30;99.90
36206;DHT22;22242;48.796;9.930;2022-10-16T14:33:54;21.20;99.90
36206;DHT22;22242;48.796;9.930;2022-10-16T14:36:21;21.10;99.90
36206;DHT22;22242;48.796;9.930;2022-10-16T14:38:59;21.00;99.90
36206;DHT22;22242;48.796;9.930;2022-10-16T14:41:29;21.10;99.90
36206;DHT22;22242;48.796;9.930;2022-10-16T14:44:01;21.20;99.90
36206;DHT22;22242;48.796;9.930;2022-10-16T14:46:33;21.10;99.90
36206;DHT22;22242;48.796;9.930;2022-10-16T14:49:15;21.10;99.90
36206;DHT22;22242;48.796;9.930;2022-10-16T14:51:42;20.80;99.90
36206;DHT22;22242;48.796;9.930;2022-10-16T14:54:11;20.60;99.90
36206;DHT22;22242;48.796;9.930;2022-10-16T14:56:46;20.50;99.90
36206;DHT22;22242;48.796;9.930;2022-10-16T14:59:16;20.40;99.90
36206;DHT22;22242;48.796;9.930;2022-10-16T15:01:44;20.30;99.90
36206;DHT22;22242;48.796;9.930;2022-10-16T15:04:12;20.20;99.90
36206;DHT22;22242;48.796;9.930;2022-10-16T15:06:39;20.20;99.90
36206;DHT22;22242;48.796;9.930;2022-10-16T15:09:06;20.10;99.90
36206;DHT22;22242;48.796;9.930;2022-10-16T15:11:33;20.20;99.90
36206;DHT22;22242;48.796;9.930;2022-10-16T15:14:02;20.00;99.90
36206;DHT22;22242;48.796;9.930;2022-10-16T15:16:29;19.90;99.90
36206;DHT22;22242;48.796;9.930;2022-10-16T15:18:56;19.90;99.90
36206;DHT22;22242;48.796;9.930;2022-10-16T15:21:24;19.90;99.90
36206;DHT22;22242;48.796;9.930;2022-10-16T15:23:51;19.70;99.90
36206;DHT22;22242;48.796;9.930;2022-10-16T15:26:18;19.60;99.90
36206;DHT22;22242;48.796;9.930;2022-10-16T15:28:45;19.50;99.90
36206;DHT22;22242;48.796;9.930;2022-10-16T15:31:13;19.50;99.90
36206;DHT22;22242;48.796;9.930;2022-10-16T15:33:40;19.40;99.90
36206;DHT22;22242;48.796;9.930;2022-10-16T15:36:07;19.40;99.90
36206;DHT22;22242;48.796;9.930;2022-10-16T15:38:35;19.40;99.90
36206;DHT22;22242;48.796;9.930;2022-10-16T15:41:02;19.30;99.90
36206;DHT22;22242;48.796;9.930;2022-10-16T15:43:28;19.30;99.90
36206;DHT22;22242;48.796;9.930;2022-10-16T15:45:59;19.10;99.90
36206;DHT22;22242;48.796;9.930;2022-10-16T15:48:29;19.00;99.90
36206;DHT22;22242;48.796;9.930;2022-10-16T15:50:56;19.10;99.90
36206;DHT22;22242;48.796;9.930;2022-10-16T15:53:23;19.10;99.90
36206;DHT22;22242;48.796;9.930;2022-10-16T15:55:49;19.10;99.90
36206;DHT22;22242;48.796;9.930;2022-10-16T15:58:16;19.30;99.90
36206;DHT22;22242;48.796;9.930;2022-10-16T16:00:44;19.30;99.90
36206;DHT22;22242;48.796;9.930;2022-10-16T16:03:11;19.30;99.90
36206;DHT22;22242;48.796;9.930;2022-10-16T16:05:39;19.30;99.90
36206;DHT22;22242;48.796;9.930;2022-10-16T16:08:06;19.30;99.90
36206;DHT22;22242;48.796;9.930;2022-10-16T16:10:33;19.30;99.90
36206;DHT22;22242;48.796;9.930;2022-10-16T16:13:00;19.20;99.90
36206;DHT22;22242;48.796;9.930;2022-10-16T16:15:27;19.20;99.90
36206;DHT22;22242;48.796;9.930;2022-10-16T16:17:54;19.40;99.90
36206;DHT22;22242;48.796;9.930;2022-10-16T16:20:21;19.40;99.90
36206;DHT22;22242;48.796;9.930;2022-10-16T16:22:49;19.30;99.90
36206;DHT22;22242;48.796;9.930;2022-10-16T16:25:16;19.20;99.90
36206;DHT22;22242;48.796;9.930;2022-10-16T16:27:43;19.20;99.90
36206;DHT22;22242;48.796;9.930;2022-10-16T16:30:10;19.30;99.90
36206;DHT22;22242;48.796;9.930;2022-10-16T16:32:38;19.30;99.90
36206;DHT22;22242;48.796;9.930;2022-10-16T16:35:05;19.30;99.90
36206;DHT22;22242;48.796;9.930;2022-10-16T16:37:32;19.30;99.90
36206;DHT22;22242;48.796;9.930;2022-10-16T16:40:01;19.30;99.90
36206;DHT22;22242;48.796;9.930;2022-10-16T16:42:28;19.20;99.90
36206;DHT22;22242;48.796;9.930;2022-10-16T16:44:55;19.20;99.90
36206;DHT22;22242;48.796;9.930;2022-10-16T16:47:22;19.10;99.90
36206;DHT22;22242;48.796;9.930;2022-10-16T16:49:49;19.00;99.90
36206;DHT22;22242;48.796;9.930;2022-10-16T16:52:17;18.90;99.90
36206;DHT22;22242;48.796;9.930;2022-10-16T16:54:44;18.80;99.90
36206;DHT22;22242;48.796;9.930;2022-10-16T16:57:19;18.70;99.90
36206;DHT22;22242;48.796;9.930;2022-10-16T16:59:46;18.60;99.90
36206;DHT22;22242;48.796;9.930;2022-10-16T17:02:13;18.40;99.90
36206;DHT22;22242;48.796;9.930;2022-10-16T17:04:40;18.40;99.90
36206;DHT22;22242;48.796;9.930;2022-10-16T17:07:07;18.40;99.90
36206;DHT22;22242;48.796;9.930;2022-10-16T17:09:34;18.40;99.90
36206;DHT22;22242;48.796;9.930;2022-10-16T17:12:01;18.40;99.90
36206;DHT22;22242;48.796;9.930;2022-10-16T17:14:29;18.30;99.90
36206;DHT22;22242;48.796;9.930;2022-10-16T17:16:55;18.20;99.90
36206;DHT22;22242;48.796;9.930;2022-10-16T17:19:22;18.20;99.90
36206;DHT22;22242;48.796;9.930;2022-10-16T17:21:50;18.10;99.90
36206;DHT22;22242;48.796;9.930;2022-10-16T17:24:17;18.20;99.90
36206;DHT22;22242;48.796;9.930;2022-10-16T17:26:45;18.10;99.90
36206;DHT22;22242;48.796;9.930;2022-10-16T17:29:14;18.00;99.90
36206;DHT22;22242;48.796;9.930;2022-10-16T17:31:44;18.00;99.90
36206;DHT22;22242;48.796;9.930;2022-10-16T17:34:11;18.20;99.90
36206;DHT22;22242;48.796;9.930;2022-10-16T17:36:39;18.10;99.90
36206;DHT22;22242;48.796;9.930;2022-10-16T17:39:10;18.20;99.90
36206;DHT22;22242;48.796;9.930;2022-10-16T17:41:37;18.00;99.90
36206;DHT22;22242;48.796;9.930;2022-10-16T17:44:05;18.00;99.90
36206;DHT22;22242;48.796;9.930;2022-10-16T17:46:32;18.00;99.90
36206;DHT22;22242;48.796;9.930;2022-10-16T17:49:01;18.00;99.90
36206;DHT22;22242;48.796;9.930;2022-10-16T17:51:29;18.00;99.90
36206;DHT22;22242;48.796;9.930;2022-10-16T17:53:59;18.10;99.90
36206;DHT22;22242;48.796;9.930;2022-10-16T17:56:26;18.20;99.90
36206;DHT22;22242;48.796;9.930;2022-10-16T17:58:55;18.20;99.90
36206;DHT22;22242;48.796;9.930;2022-10-16T18:01:25;18.10;99.90
36206;DHT22;22242;48.796;9.930;2022-10-16T18:03:54;18.20;99.90
36206;DHT22;22242;48.796;9.930;2022-10-16T18:06:24;18.70;99.90
36206;DHT22;22242;48.796;9.930;2022-10-16T18:08:51;18.80;99.90
36206;DHT22;22242;48.796;9.930;2022-10-16T18:11:18;18.90;99.90
36206;DHT22;22242;48.796;9.930;2022-10-16T18:13:46;18.90;99.90
36206;DHT22;22242;48.796;9.930;2022-10-16T18:16:13;18.60;99.90
36206;DHT22;22242;48.796;9.930;2022-10-16T18:18:42;18.50;99.90
36206;DHT22;22242;48.796;9.930;2022-10-16T18:21:11;18.50;99.90
36206;DHT22;22242;48.796;9.930;2022-10-16T18:23:41;18.50;99.90
36206;DHT22;22242;48.796;9.930;2022-10-16T18:26:09;18.80;99.90
36206;DHT22;22242;48.796;9.930;2022-10-16T18:28:36;19.10;99.90
36206;DHT22;22242;48.796;9.930;2022-10-16T18:31:05;19.10;99.90
36206;DHT22;22242;48.796;9.930;2022-10-16T18:33:33;18.80;99.90
36206;DHT22;22242;48.796;9.930;2022-10-16T18:36:01;18.60;99.90
36206;DHT22;22242;48.796;9.930;2022-10-16T18:38:28;18.40;99.90
36206;DHT22;22242;48.796;9.930;2022-10-16T18:40:57;18.20;99.90
36206;DHT22;22242;48.796;9.930;2022-10-16T18:43:26;18.10;99.90
36206;DHT22;22242;48.796;9.930;2022-10-16T18:45:56;17.90;99.90
36206;DHT22;22242;48.796;9.930;2022-10-16T18:48:23;17.90;99.90
36206;DHT22;22242;48.796;9.930;2022-10-16T18:50:50;17.80;99.90
36206;DHT22;22242;48.796;9.930;2022-10-16T18:53:17;17.90;99.90
36206;DHT22;22242;48.796;9.930;2022-10-16T18:55:50;17.90;99.90
36206;DHT22;22242;48.796;9.930;2022-10-16T18:58:18;17.80;99.90
36206;DHT22;22242;48.796;9.930;2022-10-16T19:00:45;17.80;99.90
36206;DHT22;22242;48.796;9.930;2022-10-16T19:03:12;17.60;99.90
36206;DHT22;22242;48.796;9.930;2022-10-16T19:05:39;17.60;99.90
36206;DHT22;22242;48.796;9.930;2022-10-16T19:08:06;17.60;99.90
36206;DHT22;22242;48.796;9.930;2022-10-16T19:10:35;17.50;99.90
36206;DHT22;22242;48.796;9.930;2022-10-16T19:13:02;17.50;99.90
36206;DHT22;22242;48.796;9.930;2022-10-16T19:15:31;17.50;99.90
36206;DHT22;22242;48.796;9.930;2022-10-16T19:17:57;17.50;99.90
36206;DHT22;22242;48.796;9.930;2022-10-16T19:20:24;17.60;99.90
36206;DHT22;22242;48.796;9.930;2022-10-16T19:22:51;17.60;99.90
36206;DHT22;22242;48.796;9.930;2022-10-16T19:25:21;17.60;99.90
36206;DHT22;22242;48.796;9.930;2022-10-16T19:27:48;17.50;99.90
36206;DHT22;22242;48.796;9.930;2022-10-16T19:30:16;17.50;99.90
36206;DHT22;22242;48.796;9.930;2022-10-16T19:32:45;17.40;99.90
36206;DHT22;22242;48.796;9.930;2022-10-16T19:35:14;17.40;99.90
36206;DHT22;22242;48.796;9.930;2022-10-16T19:37:41;17.40;99.90
36206;DHT22;22242;48.796;9.930;2022-10-16T19:40:09;17.30;99.90
36206;DHT22;22242;48.796;9.930;2022-10-16T19:42:36;17.40;99.90
36206;DHT22;22242;48.796;9.930;2022-10-16T19:45:09;17.30;99.90
36206;DHT22;22242;48.796;9.930;2022-10-16T19:47:36;17.40;99.90
36206;DHT22;22242;48.796;9.930;2022-10-16T19:50:05;17.30;99.90
36206;DHT22;22242;48.796;9.930;2022-10-16T19:52:35;17.30;99.90
36206;DHT22;22242;48.796;9.930;2022-10-16T19:55:03;17.30;99.90
36206;DHT22;22242;48.796;9.930;2022-10-16T19:57:32;17.30;99.90
36206;DHT22;22242;48.796;9.930;2022-10-16T19:59:59;17.20;99.90
36206;DHT22;22242;48.796;9.930;2022-10-16T20:02:26;17.20;99.90
36206;DHT22;22242;48.796;9.930;2022-10-16T20:04:53;17.30;99.90
36206;DHT22;22242;48.796;9.930;2022-10-16T20:07:21;17.20;99.90
36206;DHT22;22242;48.796;9.930;2022-10-16T20:09:48;17.20;99.90
36206;DHT22;22242;48.796;9.930;2022-10-16T20:12:15;17.20;99.90
36206;DHT22;22242;48.796;9.930;2022-10-16T20:14:42;17.20;99.90
36206;DHT22;22242;48.796;9.930;2022-10-16T20:17:09;17.20;99.90
36206;DHT22;22242;48.796;9.930;2022-10-16T20:19:36;17.20;99.90
36206;DHT22;22242;48.796;9.930;2022-10-16T20:22:04;17.30;99.90
36206;DHT22;22242;48.796;9.930;2022-10-16T20:24:32;17.30;99.90
36206;DHT22;22242;48.796;9.930;2022-10-16T20:26:59;17.20;99.90
36206;DHT22;22242;48.796;9.930;2022-10-16T20:29:26;17.20;99.90
36206;DHT22;22242;48.796;9.930;2022-10-16T20:31:53;17.30;99.90
36206;DHT22;22242;48.796;9.930;2022-10-16T20:34:20;17.30;99.90
36206;DHT22;22242;48.796;9.930;2022-10-16T20:36:47;17.30;99.90
36206;DHT22;22242;48.796;9.930;2022-10-16T20:39:15;17.30;99.90
36206;DHT22;22242;48.796;9.930;2022-10-16T20:41:43;17.20;99.90
36206;DHT22;22242;48.796;9.930;2022-10-16T20:44:10;17.20;99.90
36206;DHT22;22242;48.796;9.930;2022-10-16T20:46:37;17.20;99.90
36206;DHT22;22242;48.796;9.930;2022-10-16T20:49:04;17.20;99.90
36206;DHT22;22242;48.796;9.930;2022-10-16T20:51:31;17.40;99.90
36206;DHT22;22242;48.796;9.930;2022-10-16T20:53:59;17.60;99.90
36206;DHT22;22242;48.796;9.930;2022-10-16T20:56:28;17.60;99.90
36206;DHT22;22242;48.796;9.930;2022-10-16T20:58:57;17.70;99.90
36206;DHT22;22242;48.796;9.930;2022-10-16T21:01:25;17.80;99.90
36206;DHT22;22242;48.796;9.930;2022-10-16T21:03:54;17.80;99.90
36206;DHT22;22242;48.796;9.930;2022-10-16T21:06:22;18.00;99.90
36206;DHT22;22242;48.796;9.930;2022-10-16T21:08:49;18.00;99.90
36206;DHT22;22242;48.796;9.930;2022-10-16T21:11:17;17.80;99.90
36206;DHT22;22242;48.796;9.930;2022-10-16T21:13:45;17.70;99.90
36206;DHT22;22242;48.796;9.930;2022-10-16T21:16:14;17.90;99.90
36206;DHT22;22242;48.796;9.930;2022-10-16T21:18:41;17.90;99.90
36206;DHT22;22242;48.796;9.930;2022-10-16T21:21:09;17.90;99.90
36206;DHT22;22242;48.796;9.930;2022-10-16T21:23:36;17.60;99.90
36206;DHT22;22242;48.796;9.930;2022-10-16T21:26:03;17.50;99.90
36206;DHT22;22242;48.796;9.930;2022-10-16T21:28:30;17.50;99.90
36206;DHT22;22242;48.796;9.930;2022-10-16T21:30:57;17.60;99.90
36206;DHT22;22242;48.796;9.930;2022-10-16T21:33:26;17.80;99.90
36206;DHT22;22242;48.796;9.930;2022-10-16T21:35:53;17.90;99.90
36206;DHT22;22242;48.796;9.930;2022-10-16T21:38:20;18.00;99.90
36206;DHT22;22242;48.796;9.930;2022-10-16T21:40:47;18.00;99.90
36206;DHT22;22242;48.796;9.930;2022-10-16T21:43:14;18.20;99.90
36206;DHT22;22242;48.796;9.930;2022-10-16T21:45:41;18.20;99.90
36206;DHT22;22242;48.796;9.930;2022-10-16T21:48:08;18.20;99.90
36206;DHT22;22242;48.796;9.930;2022-10-16T21:50:36;18.20;99.90
36206;DHT22;22242;48.796;9.930;2022-10-16T21:53:03;18.20;99.90
36206;DHT22;22242;48.796;9.930;2022-10-16T21:55:34;18.20;99.90
36206;DHT22;22242;48.796;9.930;2022-10-16T21:58:01;18.10;99.90
36206;DHT22;22242;48.796;9.930;2022-10-16T22:00:28;18.10;99.90
36206;DHT22;22242;48.796;9.930;2022-10-16T22:02:55;18.40;99.90
36206;DHT22;22242;48.796;9.930;2022-10-16T22:05:23;18.40;99.90
36206;DHT22;22242;48.796;9.930;2022-10-16T22:07:51;18.40;99.90
36206;DHT22;22242;48.796;9.930;2022-10-16T22:10:18;18.20;99.90
36206;DHT22;22242;48.796;9.930;2022-10-16T22:12:44;18.00;99.90
36206;DHT22;22242;48.796;9.930;2022-10-16T22:15:11;18.10;99.90
36206;DHT22;22242;48.796;9.930;2022-10-16T22:17:38;18.10;99.90
36206;DHT22;22242;48.796;9.930;2022-10-16T22:20:06;18.20;99.90
36206;DHT22;22242;48.796;9.930;2022-10-16T22:22:33;18.10;99.90
36206;DHT22;22242;48.796;9.930;2022-10-16T22:25:01;18.20;99.90
36206;DHT22;22242;48.796;9.930;2022-10-16T22:27:28;18.00;99.90
36206;DHT22;22242;48.796;9.930;2022-10-16T22:29:55;17.90;99.90
36206;DHT22;22242;48.796;9.930;2022-10-16T22:32:22;18.00;99.90
36206;DHT22;22242;48.796;9.930;2022-10-16T22:34:48;17.90;99.90
36206;DHT22;22242;48.796;9.930;2022-10-16T22:37:15;18.10;99.90
36206;DHT22;22242;48.796;9.930;2022-10-16T22:39:42;18.10;99.90
36206;DHT22;22242;48.796;9.930;2022-10-16T22:42:10;18.10;99.90
36206;DHT22;22242;48.796;9.930;2022-10-16T22:44:37;18.30;99.90
36206;DHT22;22242;48.796;9.930;2022-10-16T22:47:04;18.20;99.90
36206;DHT22;22242;48.796;9.930;2022-10-16T22:49:31;18.30;99.90
36206;DHT22;22242;48.796;9.930;2022-10-16T22:51:59;18.20;99.90
36206;DHT22;22242;48.796;9.930;2022-10-16T22:54:26;18.40;99.90
36206;DHT22;22242;48.796;9.930;2022-10-16T22:56:52;18.20;99.90
36206;DHT22;22242;48.796;9.930;2022-10-16T22:59:21;18.20;99.90
36206;DHT22;22242;48.796;9.930;2022-10-16T23:01:47;18.20;99.90
36206;DHT22;22242;48.796;9.930;2022-10-16T23:04:14;18.40;99.90
36206;DHT22;22242;48.796;9.930;2022-10-16T23:06:41;18.40;99.90
36206;DHT22;22242;48.796;9.930;2022-10-16T23:09:09;18.30;99.90
36206;DHT22;22242;48.796;9.930;2022-10-16T23:11:36;18.30;99.90
36206;DHT22;22242;48.796;9.930;2022-10-16T23:14:03;18.20;99.90
36206;DHT22;22242;48.796;9.930;2022-10-16T23:16:31;18.30;99.90
36206;DHT22;22242;48.796;9.930;2022-10-16T23:18:58;18.20;99.90
36206;DHT22;22242;48.796;9.930;2022-10-16T23:21:25;18.20;99.90
36206;DHT22;22242;48.796;9.930;2022-10-16T23:23:52;18.20;99.90
36206;DHT22;22242;48.796;9.930;2022-10-16T23:26:21;18.30;99.90
36206;DHT22;22242;48.796;9.930;2022-10-16T23:28:48;18.20;99.90
36206;DHT22;22242;48.796;9.930;2022-10-16T23:31:15;18.20;99.90
36206;DHT22;22242;48.796;9.930;2022-10-16T23:33:44;18.20;99.90
36206;DHT22;22242;48.796;9.930;2022-10-16T23:36:13;18.10;99.90
36206;DHT22;22242;48.796;9.930;2022-10-16T23:38:40;18.20;99.90
36206;DHT22;22242;48.796;9.930;2022-10-16T23:41:08;18.30;99.90
36206;DHT22;22242;48.796;9.930;2022-10-16T23:43:34;18.30;99.90
36206;DHT22;22242;48.796;9.930;2022-10-16T23:46:02;18.40;99.90
36206;DHT22;22242;48.796;9.930;2022-10-16T23:48:29;18.50;99.90
36206;DHT22;22242;48.796;9.930;2022-10-16T23:50:58;18.40;99.90
36206;DHT22;22242;48.796;9.930;2022-10-16T23:53:25;18.40;99.90
36206;DHT22;22242;48.796;9.930;2022-10-16T23:55:52;18.50;99.90
36206;DHT22;22242;48.796;9.930;2022-10-16T23:58:19;18.40;99.90
